sensor_id;sensor_type;location;lat;lon;timestamp;P1;durP1;ratioP1;P2;durP2;ratioP2
6358;SDS011;3212;51.460;11.868;2023-05-10T00:00:52;4.53;;;4.07;;
6358;SDS011;3212;51.460;11.868;2023-05-10T00:04:13;4.80;;;4.20;;
6358;SDS011;3212;51.460;11.868;2023-05-10T00:07:35;6.70;;;4.50;;
6358;SDS011;3212;51.460;11.868;2023-05-10T00:10:57;4.40;;;3.83;;
6358;SDS011;3212;51.460;11.868;2023-05-10T00:14:19;6.73;;;4.13;;
6358;SDS011;3212;51.460;11.868;2023-05-10T00:17:41;4.80;;;4.00;;
6358;SDS011;3212;51.460;11.868;2023-05-10T00:21:03;6.40;;;4.23;;
6358;SDS011;3212;51.460;11.868;2023-05-10T00:24:25;7.70;;;4.57;;
6358;SDS011;3212;51.460;11.868;2023-05-10T00:27:48;6.47;;;4.30;;
6358;SDS011;3212;51.460;11.868;2023-05-10T00:31:10;5.70;;;4.40;;
6358;SDS011;3212;51.460;11.868;2023-05-10T00:34:32;6.90;;;4.40;;
6358;SDS011;3212;51.460;11.868;2023-05-10T00:37:54;4.87;;;4.10;;
6358;SDS011;3212;51.460;11.868;2023-05-10T00:41:16;5.47;;;4.50;;
6358;SDS011;3212;51.460;11.868;2023-05-10T00:44:38;6.57;;;4.80;;
6358;SDS011;3212;51.460;11.868;2023-05-10T00:48:00;5.93;;;4.30;;
6358;SDS011;3212;51.460;11.868;2023-05-10T00:51:23;6.80;;;4.70;;
6358;SDS011;3212;51.460;11.868;2023-05-10T00:54:45;5.50;;;4.40;;
6358;SDS011;3212;51.460;11.868;2023-05-10T00:58:06;6.93;;;4.50;;
6358;SDS011;3212;51.460;11.868;2023-05-10T01:01:28;6.40;;;4.70;;
6358;SDS011;3212;51.460;11.868;2023-05-10T01:04:51;4.60;;;3.80;;
6358;SDS011;3212;51.460;11.868;2023-05-10T01:08:13;5.20;;;4.00;;
6358;SDS011;3212;51.460;11.868;2023-05-10T01:11:35;5.90;;;4.30;;
6358;SDS011;3212;51.460;11.868;2023-05-10T01:14:56;5.57;;;4.00;;
6358;SDS011;3212;51.460;11.868;2023-05-10T01:18:18;4.90;;;4.30;;
6358;SDS011;3212;51.460;11.868;2023-05-10T01:21:48;7.53;;;4.63;;
6358;SDS011;3212;51.460;11.868;2023-05-10T01:25:11;5.20;;;4.00;;
6358;SDS011;3212;51.460;11.868;2023-05-10T01:28:34;6.67;;;4.17;;
6358;SDS011;3212;51.460;11.868;2023-05-10T01:32:09;6.07;;;4.63;;
6358;SDS011;3212;51.460;11.868;2023-05-10T01:35:47;6.43;;;4.40;;
6358;SDS011;3212;51.460;11.868;2023-05-10T01:39:11;5.63;;;4.50;;
6358;SDS011;3212;51.460;11.868;2023-05-10T01:42:36;6.00;;;4.87;;
6358;SDS011;3212;51.460;11.868;2023-05-10T01:46:00;13.97;;;4.63;;
6358;SDS011;3212;51.460;11.868;2023-05-10T01:49:26;6.00;;;4.37;;
6358;SDS011;3212;51.460;11.868;2023-05-10T01:52:51;6.70;;;4.53;;
6358;SDS011;3212;51.460;11.868;2023-05-10T01:56:12;6.80;;;4.83;;
6358;SDS011;3212;51.460;11.868;2023-05-10T01:59:34;6.37;;;4.60;;
6358;SDS011;3212;51.460;11.868;2023-05-10T02:02:58;5.53;;;4.40;;
6358;SDS011;3212;51.460;11.868;2023-05-10T02:06:20;6.80;;;4.37;;
6358;SDS011;3212;51.460;11.868;2023-05-10T02:09:42;7.40;;;5.00;;
6358;SDS011;3212;51.460;11.868;2023-05-10T02:13:03;7.80;;;4.87;;
6358;SDS011;3212;51.460;11.868;2023-05-10T02:16:26;9.80;;;4.60;;
6358;SDS011;3212;51.460;11.868;2023-05-10T02:19:47;10.77;;;4.45;;
6358;SDS011;3212;51.460;11.868;2023-05-10T02:23:09;10.10;;;5.50;;
6358;SDS011;3212;51.460;11.868;2023-05-10T02:26:31;8.03;;;5.20;;
6358;SDS011;3212;51.460;11.868;2023-05-10T02:29:52;7.70;;;4.83;;
6358;SDS011;3212;51.460;11.868;2023-05-10T02:33:14;6.72;;;4.90;;
6358;SDS011;3212;51.460;11.868;2023-05-10T02:36:38;9.10;;;5.60;;
6358;SDS011;3212;51.460;11.868;2023-05-10T02:39:59;10.53;;;4.87;;
6358;SDS011;3212;51.460;11.868;2023-05-10T02:43:21;6.95;;;4.53;;
6358;SDS011;3212;51.460;11.868;2023-05-10T02:46:44;9.40;;;4.87;;
6358;SDS011;3212;51.460;11.868;2023-05-10T02:50:07;9.03;;;4.57;;
6358;SDS011;3212;51.460;11.868;2023-05-10T02:53:30;7.47;;;5.07;;
6358;SDS011;3212;51.460;11.868;2023-05-10T02:56:51;5.63;;;4.60;;
6358;SDS011;3212;51.460;11.868;2023-05-10T03:00:12;6.63;;;5.00;;
6358;SDS011;3212;51.460;11.868;2023-05-10T03:03:34;7.00;;;4.83;;
6358;SDS011;3212;51.460;11.868;2023-05-10T03:06:56;8.40;;;5.47;;
6358;SDS011;3212;51.460;11.868;2023-05-10T03:10:18;7.87;;;5.70;;
6358;SDS011;3212;51.460;11.868;2023-05-10T03:13:44;7.67;;;5.20;;
6358;SDS011;3212;51.460;11.868;2023-05-10T03:17:10;11.10;;;4.97;;
6358;SDS011;3212;51.460;11.868;2023-05-10T03:24:08;6.63;;;4.83;;
6358;SDS011;3212;51.460;11.868;2023-05-10T03:27:30;7.80;;;4.57;;
6358;SDS011;3212;51.460;11.868;2023-05-10T03:30:52;12.00;;;5.30;;
6358;SDS011;3212;51.460;11.868;2023-05-10T03:34:14;7.23;;;4.73;;
6358;SDS011;3212;51.460;11.868;2023-05-10T03:37:36;7.70;;;4.93;;
6358;SDS011;3212;51.460;11.868;2023-05-10T03:40:58;10.03;;;4.73;;
6358;SDS011;3212;51.460;11.868;2023-05-10T03:44:20;10.15;;;4.75;;
6358;SDS011;3212;51.460;11.868;2023-05-10T03:47:42;8.43;;;4.50;;
6358;SDS011;3212;51.460;11.868;2023-05-10T03:51:04;7.13;;;4.83;;
6358;SDS011;3212;51.460;11.868;2023-05-10T03:54:26;18.03;;;5.20;;
6358;SDS011;3212;51.460;11.868;2023-05-10T03:57:48;9.47;;;4.70;;
6358;SDS011;3212;51.460;11.868;2023-05-10T04:01:11;5.37;;;4.30;;
6358;SDS011;3212;51.460;11.868;2023-05-10T04:04:33;7.97;;;5.20;;
6358;SDS011;3212;51.460;11.868;2023-05-10T04:07:55;11.17;;;4.70;;
6358;SDS011;3212;51.460;11.868;2023-05-10T04:11:16;8.87;;;4.47;;
6358;SDS011;3212;51.460;11.868;2023-05-10T04:14:38;6.80;;;4.70;;
6358;SDS011;3212;51.460;11.868;2023-05-10T04:18:00;11.30;;;4.80;;
6358;SDS011;3212;51.460;11.868;2023-05-10T04:21:23;6.10;;;4.50;;
6358;SDS011;3212;51.460;11.868;2023-05-10T04:24:44;6.80;;;4.50;;
6358;SDS011;3212;51.460;11.868;2023-05-10T04:28:06;7.07;;;4.30;;
6358;SDS011;3212;51.460;11.868;2023-05-10T04:31:28;6.33;;;4.30;;
6358;SDS011;3212;51.460;11.868;2023-05-10T04:34:50;6.70;;;5.00;;
6358;SDS011;3212;51.460;11.868;2023-05-10T04:38:13;6.40;;;4.57;;
6358;SDS011;3212;51.460;11.868;2023-05-10T04:41:34;6.10;;;4.30;;
6358;SDS011;3212;51.460;11.868;2023-05-10T04:44:56;8.10;;;4.50;;
6358;SDS011;3212;51.460;11.868;2023-05-10T04:48:19;6.50;;;4.43;;
6358;SDS011;3212;51.460;11.868;2023-05-10T04:51:42;7.03;;;4.73;;
6358;SDS011;3212;51.460;11.868;2023-05-10T04:55:03;6.60;;;4.50;;
6358;SDS011;3212;51.460;11.868;2023-05-10T04:58:25;6.53;;;4.13;;
6358;SDS011;3212;51.460;11.868;2023-05-10T05:01:47;8.10;;;4.77;;
6358;SDS011;3212;51.460;11.868;2023-05-10T05:05:10;5.87;;;3.97;;
6358;SDS011;3212;51.460;11.868;2023-05-10T05:08:32;6.70;;;4.00;;
6358;SDS011;3212;51.460;11.868;2023-05-10T05:11:54;5.77;;;3.80;;
6358;SDS011;3212;51.460;11.868;2023-05-10T05:15:15;5.73;;;4.43;;
6358;SDS011;3212;51.460;11.868;2023-05-10T05:18:38;9.20;;;4.50;;
6358;SDS011;3212;51.460;11.868;2023-05-10T05:22:00;7.03;;;4.23;;
6358;SDS011;3212;51.460;11.868;2023-05-10T05:25:22;7.57;;;4.30;;
6358;SDS011;3212;51.460;11.868;2023-05-10T05:28:44;5.07;;;4.13;;
6358;SDS011;3212;51.460;11.868;2023-05-10T05:32:05;11.10;;;4.33;;
6358;SDS011;3212;51.460;11.868;2023-05-10T05:35:27;11.20;;;4.43;;
6358;SDS011;3212;51.460;11.868;2023-05-10T05:38:49;6.03;;;4.43;;
6358;SDS011;3212;51.460;11.868;2023-05-10T05:42:12;6.03;;;4.30;;
6358;SDS011;3212;51.460;11.868;2023-05-10T05:45:34;6.97;;;5.17;;
6358;SDS011;3212;51.460;11.868;2023-05-10T05:48:56;9.40;;;4.70;;
6358;SDS011;3212;51.460;11.868;2023-05-10T05:52:18;6.83;;;4.03;;
6358;SDS011;3212;51.460;11.868;2023-05-10T05:55:40;7.15;;;4.60;;
6358;SDS011;3212;51.460;11.868;2023-05-10T05:59:02;8.67;;;4.80;;
6358;SDS011;3212;51.460;11.868;2023-05-10T06:02:24;4.77;;;4.10;;
6358;SDS011;3212;51.460;11.868;2023-05-10T06:05:46;8.05;;;4.85;;
6358;SDS011;3212;51.460;11.868;2023-05-10T06:09:08;7.83;;;4.57;;
6358;SDS011;3212;51.460;11.868;2023-05-10T06:12:29;6.80;;;4.73;;
6358;SDS011;3212;51.460;11.868;2023-05-10T06:15:51;14.57;;;5.30;;
6358;SDS011;3212;51.460;11.868;2023-05-10T06:19:14;7.60;;;4.87;;
6358;SDS011;3212;51.460;11.868;2023-05-10T06:22:35;9.23;;;5.13;;
6358;SDS011;3212;51.460;11.868;2023-05-10T06:25:57;9.17;;;5.30;;
6358;SDS011;3212;51.460;11.868;2023-05-10T06:29:19;11.80;;;4.50;;
6358;SDS011;3212;51.460;11.868;2023-05-10T06:32:42;8.70;;;4.90;;
6358;SDS011;3212;51.460;11.868;2023-05-10T06:36:04;8.80;;;5.00;;
6358;SDS011;3212;51.460;11.868;2023-05-10T06:39:26;8.00;;;4.87;;
6358;SDS011;3212;51.460;11.868;2023-05-10T06:42:48;9.93;;;5.53;;
6358;SDS011;3212;51.460;11.868;2023-05-10T06:46:11;7.57;;;4.93;;
6358;SDS011;3212;51.460;11.868;2023-05-10T06:49:33;8.83;;;5.37;;
6358;SDS011;3212;51.460;11.868;2023-05-10T06:52:55;12.83;;;5.50;;
6358;SDS011;3212;51.460;11.868;2023-05-10T06:56:17;9.47;;;5.23;;
6358;SDS011;3212;51.460;11.868;2023-05-10T06:59:38;8.07;;;5.27;;
6358;SDS011;3212;51.460;11.868;2023-05-10T07:03:00;8.23;;;5.00;;
6358;SDS011;3212;51.460;11.868;2023-05-10T07:06:23;13.73;;;5.97;;
6358;SDS011;3212;51.460;11.868;2023-05-10T07:09:45;7.27;;;4.90;;
6358;SDS011;3212;51.460;11.868;2023-05-10T07:13:06;12.03;;;5.57;;
6358;SDS011;3212;51.460;11.868;2023-05-10T07:16:28;7.10;;;5.50;;
6358;SDS011;3212;51.460;11.868;2023-05-10T07:19:50;8.27;;;5.72;;
6358;SDS011;3212;51.460;11.868;2023-05-10T07:23:12;12.60;;;5.40;;
6358;SDS011;3212;51.460;11.868;2023-05-10T07:26:34;11.73;;;5.90;;
6358;SDS011;3212;51.460;11.868;2023-05-10T07:29:56;9.43;;;6.70;;
6358;SDS011;3212;51.460;11.868;2023-05-10T07:33:18;12.70;;;6.77;;
6358;SDS011;3212;51.460;11.868;2023-05-10T07:36:39;11.83;;;6.97;;
6358;SDS011;3212;51.460;11.868;2023-05-10T07:40:01;10.60;;;7.23;;
6358;SDS011;3212;51.460;11.868;2023-05-10T07:43:23;12.83;;;7.53;;
6358;SDS011;3212;51.460;11.868;2023-05-10T07:46:45;13.57;;;7.67;;
6358;SDS011;3212;51.460;11.868;2023-05-10T07:50:07;14.87;;;8.33;;
6358;SDS011;3212;51.460;11.868;2023-05-10T07:53:30;12.40;;;7.53;;
6358;SDS011;3212;51.460;11.868;2023-05-10T07:56:52;10.20;;;7.27;;
6358;SDS011;3212;51.460;11.868;2023-05-10T08:00:17;11.50;;;7.27;;
6358;SDS011;3212;51.460;11.868;2023-05-10T08:03:38;10.37;;;6.50;;
6358;SDS011;3212;51.460;11.868;2023-05-10T08:07:00;11.40;;;7.40;;
6358;SDS011;3212;51.460;11.868;2023-05-10T08:10:22;11.53;;;7.17;;
6358;SDS011;3212;51.460;11.868;2023-05-10T08:13:45;12.40;;;8.63;;
6358;SDS011;3212;51.460;11.868;2023-05-10T08:17:06;12.82;;;7.75;;
6358;SDS011;3212;51.460;11.868;2023-05-10T08:20:28;13.90;;;7.70;;
6358;SDS011;3212;51.460;11.868;2023-05-10T08:23:50;9.07;;;6.60;;
6358;SDS011;3212;51.460;11.868;2023-05-10T08:27:12;8.50;;;6.83;;
6358;SDS011;3212;51.460;11.868;2023-05-10T08:30:34;13.70;;;6.80;;
6358;SDS011;3212;51.460;11.868;2023-05-10T08:33:56;8.47;;;6.87;;
6358;SDS011;3212;51.460;11.868;2023-05-10T08:37:17;10.07;;;6.70;;
6358;SDS011;3212;51.460;11.868;2023-05-10T08:40:41;9.83;;;6.90;;
6358;SDS011;3212;51.460;11.868;2023-05-10T08:44:02;9.70;;;6.17;;
6358;SDS011;3212;51.460;11.868;2023-05-10T08:47:25;8.10;;;5.70;;
6358;SDS011;3212;51.460;11.868;2023-05-10T08:50:47;7.60;;;5.20;;
6358;SDS011;3212;51.460;11.868;2023-05-10T08:54:10;6.43;;;5.70;;
6358;SDS011;3212;51.460;11.868;2023-05-10T08:57:33;6.67;;;5.00;;
6358;SDS011;3212;51.460;11.868;2023-05-10T09:00:54;5.33;;;4.53;;
6358;SDS011;3212;51.460;11.868;2023-05-10T09:04:16;6.90;;;4.53;;
6358;SDS011;3212;51.460;11.868;2023-05-10T09:07:38;6.00;;;4.47;;
6358;SDS011;3212;51.460;11.868;2023-05-10T09:11:00;6.47;;;4.90;;
6358;SDS011;3212;51.460;11.868;2023-05-10T09:14:23;5.37;;;4.20;;
6358;SDS011;3212;51.460;11.868;2023-05-10T09:17:45;5.80;;;4.20;;
6358;SDS011;3212;51.460;11.868;2023-05-10T09:21:06;6.30;;;4.40;;
6358;SDS011;3212;51.460;11.868;2023-05-10T09:24:29;7.47;;;4.80;;
6358;SDS011;3212;51.460;11.868;2023-05-10T09:27:52;4.40;;;3.90;;
6358;SDS011;3212;51.460;11.868;2023-05-10T09:31:12;6.17;;;4.80;;
6358;SDS011;3212;51.460;11.868;2023-05-10T09:34:35;4.77;;;3.93;;
6358;SDS011;3212;51.460;11.868;2023-05-10T09:37:58;4.77;;;3.97;;
6358;SDS011;3212;51.460;11.868;2023-05-10T09:41:19;4.90;;;4.00;;
6358;SDS011;3212;51.460;11.868;2023-05-10T09:44:40;3.40;;;3.07;;
6358;SDS011;3212;51.460;11.868;2023-05-10T09:48:02;3.10;;;2.77;;
6358;SDS011;3212;51.460;11.868;2023-05-10T09:51:24;2.73;;;2.50;;
6358;SDS011;3212;51.460;11.868;2023-05-10T09:54:52;3.30;;;2.60;;
6358;SDS011;3212;51.460;11.868;2023-05-10T09:58:14;3.77;;;2.80;;
6358;SDS011;3212;51.460;11.868;2023-05-10T10:01:36;3.07;;;2.53;;
6358;SDS011;3212;51.460;11.868;2023-05-10T10:04:58;2.50;;;2.30;;
6358;SDS011;3212;51.460;11.868;2023-05-10T10:08:19;8.23;;;5.20;;
6358;SDS011;3212;51.460;11.868;2023-05-10T10:11:41;2.13;;;1.80;;
6358;SDS011;3212;51.460;11.868;2023-05-10T10:15:03;2.20;;;2.00;;
6358;SDS011;3212;51.460;11.868;2023-05-10T10:18:26;2.57;;;2.17;;
6358;SDS011;3212;51.460;11.868;2023-05-10T10:21:49;2.13;;;1.93;;
6358;SDS011;3212;51.460;11.868;2023-05-10T10:25:11;2.57;;;2.33;;
6358;SDS011;3212;51.460;11.868;2023-05-10T10:28:39;2.30;;;2.10;;
6358;SDS011;3212;51.460;11.868;2023-05-10T10:32:09;2.60;;;2.13;;
6358;SDS011;3212;51.460;11.868;2023-05-10T10:35:29;1.97;;;1.83;;
6358;SDS011;3212;51.460;11.868;2023-05-10T10:38:55;7.00;;;5.20;;
6358;SDS011;3212;51.460;11.868;2023-05-10T10:42:43;2.73;;;2.33;;
6358;SDS011;3212;51.460;11.868;2023-05-10T10:45:39;11.23;;;7.20;;
6358;SDS011;3212;51.460;11.868;2023-05-10T10:52:31;3.20;;;2.90;;
6358;SDS011;3212;51.460;11.868;2023-05-10T10:55:56;1.90;;;1.70;;
6358;SDS011;3212;51.460;11.868;2023-05-10T10:59:26;1.90;;;1.80;;
6358;SDS011;3212;51.460;11.868;2023-05-10T11:02:43;4.97;;;2.73;;
6358;SDS011;3212;51.460;11.868;2023-05-10T11:06:05;1.80;;;1.70;;
6358;SDS011;3212;51.460;11.868;2023-05-10T11:09:26;2.20;;;2.10;;
6358;SDS011;3212;51.460;11.868;2023-05-10T11:12:52;2.00;;;1.60;;
6358;SDS011;3212;51.460;11.868;2023-05-10T11:16:19;5.57;;;3.77;;
6358;SDS011;3212;51.460;11.868;2023-05-10T11:19:53;2.03;;;1.83;;
6358;SDS011;3212;51.460;11.868;2023-05-10T11:26:34;3.27;;;2.13;;
6358;SDS011;3212;51.460;11.868;2023-05-10T11:29:54;1.93;;;1.30;;
6358;SDS011;3212;51.460;11.868;2023-05-10T11:33:17;3.10;;;2.80;;
6358;SDS011;3212;51.460;11.868;2023-05-10T11:36:39;2.70;;;2.50;;
6358;SDS011;3212;51.460;11.868;2023-05-10T11:40:00;1.73;;;1.63;;
6358;SDS011;3212;51.460;11.868;2023-05-10T11:43:23;2.30;;;2.10;;
6358;SDS011;3212;51.460;11.868;2023-05-10T11:46:44;2.43;;;2.23;;
6358;SDS011;3212;51.460;11.868;2023-05-10T11:50:06;5.40;;;3.30;;
6358;SDS011;3212;51.460;11.868;2023-05-10T11:53:29;3.50;;;1.57;;
6358;SDS011;3212;51.460;11.868;2023-05-10T11:56:51;2.67;;;2.47;;
6358;SDS011;3212;51.460;11.868;2023-05-10T12:00:13;3.63;;;3.33;;
6358;SDS011;3212;51.460;11.868;2023-05-10T12:03:35;2.53;;;2.43;;
6358;SDS011;3212;51.460;11.868;2023-05-10T12:06:57;3.10;;;2.90;;
6358;SDS011;3212;51.460;11.868;2023-05-10T12:10:25;2.80;;;2.60;;
6358;SDS011;3212;51.460;11.868;2023-05-10T12:13:41;3.97;;;3.53;;
6358;SDS011;3212;51.460;11.868;2023-05-10T12:17:03;2.90;;;2.70;;
6358;SDS011;3212;51.460;11.868;2023-05-10T12:20:26;27.03;;;13.63;;
6358;SDS011;3212;51.460;11.868;2023-05-10T12:23:49;15.73;;;9.37;;
6358;SDS011;3212;51.460;11.868;2023-05-10T12:27:09;22.30;;;12.43;;
6358;SDS011;3212;51.460;11.868;2023-05-10T12:30:32;5.00;;;3.77;;
6358;SDS011;3212;51.460;11.868;2023-05-10T12:33:53;4.50;;;3.50;;
6358;SDS011;3212;51.460;11.868;2023-05-10T12:37:15;2.20;;;2.10;;
6358;SDS011;3212;51.460;11.868;2023-05-10T12:40:37;1.77;;;1.67;;
6358;SDS011;3212;51.460;11.868;2023-05-10T12:43:59;1.50;;;1.40;;
6358;SDS011;3212;51.460;11.868;2023-05-10T12:47:21;2.57;;;1.80;;
6358;SDS011;3212;51.460;11.868;2023-05-10T12:50:43;2.20;;;2.00;;
6358;SDS011;3212;51.460;11.868;2023-05-10T12:54:06;2.67;;;1.77;;
6358;SDS011;3212;51.460;11.868;2023-05-10T12:57:28;2.30;;;2.10;;
6358;SDS011;3212;51.460;11.868;2023-05-10T13:00:50;1.87;;;1.77;;
6358;SDS011;3212;51.460;11.868;2023-05-10T13:04:12;1.97;;;1.87;;
6358;SDS011;3212;51.460;11.868;2023-05-10T13:07:34;2.80;;;2.10;;
6358;SDS011;3212;51.460;11.868;2023-05-10T13:10:56;2.33;;;2.13;;
6358;SDS011;3212;51.460;11.868;2023-05-10T13:14:18;2.80;;;2.43;;
6358;SDS011;3212;51.460;11.868;2023-05-10T13:17:40;1.93;;;1.83;;
6358;SDS011;3212;51.460;11.868;2023-05-10T13:21:01;1.90;;;1.80;;
6358;SDS011;3212;51.460;11.868;2023-05-10T13:24:23;1.70;;;1.60;;
6358;SDS011;3212;51.460;11.868;2023-05-10T13:27:45;1.60;;;1.50;;
6358;SDS011;3212;51.460;11.868;2023-05-10T13:31:08;1.77;;;1.67;;
6358;SDS011;3212;51.460;11.868;2023-05-10T13:34:30;1.80;;;1.70;;
6358;SDS011;3212;51.460;11.868;2023-05-10T13:37:51;1.90;;;1.80;;
6358;SDS011;3212;51.460;11.868;2023-05-10T13:41:13;1.60;;;1.50;;
6358;SDS011;3212;51.460;11.868;2023-05-10T13:44:36;1.97;;;1.77;;
6358;SDS011;3212;51.460;11.868;2023-05-10T13:47:58;1.80;;;1.70;;
6358;SDS011;3212;51.460;11.868;2023-05-10T13:51:19;1.93;;;1.80;;
6358;SDS011;3212;51.460;11.868;2023-05-10T13:54:41;1.90;;;1.73;;
6358;SDS011;3212;51.460;11.868;2023-05-10T13:58:03;1.80;;;1.70;;
6358;SDS011;3212;51.460;11.868;2023-05-10T14:01:25;1.80;;;1.70;;
6358;SDS011;3212;51.460;11.868;2023-05-10T14:04:47;1.70;;;1.60;;
6358;SDS011;3212;51.460;11.868;2023-05-10T14:08:09;1.70;;;1.60;;
6358;SDS011;3212;51.460;11.868;2023-05-10T14:11:31;3.17;;;2.20;;
6358;SDS011;3212;51.460;11.868;2023-05-10T14:14:52;2.87;;;2.57;;
6358;SDS011;3212;51.460;11.868;2023-05-10T14:18:15;2.80;;;2.53;;
6358;SDS011;3212;51.460;11.868;2023-05-10T14:21:37;2.70;;;2.50;;
6358;SDS011;3212;51.460;11.868;2023-05-10T14:24:59;2.50;;;2.30;;
6358;SDS011;3212;51.460;11.868;2023-05-10T14:28:20;3.03;;;2.63;;
6358;SDS011;3212;51.460;11.868;2023-05-10T14:31:43;2.73;;;2.53;;
6358;SDS011;3212;51.460;11.868;2023-05-10T14:35:05;2.67;;;2.47;;
6358;SDS011;3212;51.460;11.868;2023-05-10T14:38:27;2.63;;;2.43;;
6358;SDS011;3212;51.460;11.868;2023-05-10T14:41:49;2.90;;;2.70;;
6358;SDS011;3212;51.460;11.868;2023-05-10T14:45:11;3.13;;;2.83;;
6358;SDS011;3212;51.460;11.868;2023-05-10T14:48:33;2.90;;;2.60;;
6358;SDS011;3212;51.460;11.868;2023-05-10T14:51:54;2.60;;;2.40;;
6358;SDS011;3212;51.460;11.868;2023-05-10T14:55:16;3.10;;;2.33;;
6358;SDS011;3212;51.460;11.868;2023-05-10T14:58:39;2.10;;;2.00;;
6358;SDS011;3212;51.460;11.868;2023-05-10T15:02:01;2.80;;;2.60;;
6358;SDS011;3212;51.460;11.868;2023-05-10T15:05:23;2.93;;;2.67;;
6358;SDS011;3212;51.460;11.868;2023-05-10T15:08:44;2.50;;;2.30;;
6358;SDS011;3212;51.460;11.868;2023-05-10T15:12:07;3.30;;;2.30;;
6358;SDS011;3212;51.460;11.868;2023-05-10T15:15:29;2.73;;;2.53;;
6358;SDS011;3212;51.460;11.868;2023-05-10T15:18:51;2.77;;;2.50;;
6358;SDS011;3212;51.460;11.868;2023-05-10T15:22:12;2.83;;;2.63;;
6358;SDS011;3212;51.460;11.868;2023-05-10T15:25:34;3.33;;;2.70;;
6358;SDS011;3212;51.460;11.868;2023-05-10T15:28:56;3.03;;;2.60;;
6358;SDS011;3212;51.460;11.868;2023-05-10T15:32:18;3.13;;;2.83;;
6358;SDS011;3212;51.460;11.868;2023-05-10T15:35:40;2.67;;;2.43;;
6358;SDS011;3212;51.460;11.868;2023-05-10T15:39:02;4.10;;;2.73;;
6358;SDS011;3212;51.460;11.868;2023-05-10T15:42:24;4.60;;;2.87;;
6358;SDS011;3212;51.460;11.868;2023-05-10T15:45:47;3.90;;;3.20;;
6358;SDS011;3212;51.460;11.868;2023-05-10T15:49:09;3.00;;;2.70;;
6358;SDS011;3212;51.460;11.868;2023-05-10T15:52:31;6.40;;;3.13;;
6358;SDS011;3212;51.460;11.868;2023-05-10T15:55:53;2.10;;;2.00;;
6358;SDS011;3212;51.460;11.868;2023-05-10T15:59:15;3.17;;;2.93;;
6358;SDS011;3212;51.460;11.868;2023-05-10T16:02:38;2.53;;;2.33;;
6358;SDS011;3212;51.460;11.868;2023-05-10T16:06:01;2.67;;;2.42;;
6358;SDS011;3212;51.460;11.868;2023-05-10T16:09:22;2.20;;;2.00;;
6358;SDS011;3212;51.460;11.868;2023-05-10T16:12:44;2.97;;;2.67;;
6358;SDS011;3212;51.460;11.868;2023-05-10T16:16:06;4.10;;;3.70;;
6358;SDS011;3212;51.460;11.868;2023-05-10T16:19:28;4.07;;;3.77;;
6358;SDS011;3212;51.460;11.868;2023-05-10T16:22:51;4.00;;;3.60;;
6358;SDS011;3212;51.460;11.868;2023-05-10T16:26:12;4.10;;;3.70;;
6358;SDS011;3212;51.460;11.868;2023-05-10T16:29:34;6.70;;;4.50;;
6358;SDS011;3212;51.460;11.868;2023-05-10T16:32:56;7.10;;;4.30;;
6358;SDS011;3212;51.460;11.868;2023-05-10T16:36:18;7.43;;;3.20;;
6358;SDS011;3212;51.460;11.868;2023-05-10T16:39:40;3.67;;;3.27;;
6358;SDS011;3212;51.460;11.868;2023-05-10T16:43:02;3.30;;;3.00;;
6358;SDS011;3212;51.460;11.868;2023-05-10T16:46:23;3.60;;;2.67;;
6358;SDS011;3212;51.460;11.868;2023-05-10T16:49:45;3.10;;;2.63;;
6358;SDS011;3212;51.460;11.868;2023-05-10T16:53:08;3.97;;;3.30;;
6358;SDS011;3212;51.460;11.868;2023-05-10T16:56:30;4.60;;;3.07;;
6358;SDS011;3212;51.460;11.868;2023-05-10T16:59:53;3.27;;;2.97;;
6358;SDS011;3212;51.460;11.868;2023-05-10T17:03:15;3.33;;;3.03;;
6358;SDS011;3212;51.460;11.868;2023-05-10T17:06:38;3.27;;;2.80;;
6358;SDS011;3212;51.460;11.868;2023-05-10T17:10:00;3.30;;;3.00;;
6358;SDS011;3212;51.460;11.868;2023-05-10T17:13:22;3.40;;;3.10;;
6358;SDS011;3212;51.460;11.868;2023-05-10T17:16:44;4.90;;;3.77;;
6358;SDS011;3212;51.460;11.868;2023-05-10T17:20:07;4.60;;;4.03;;
6358;SDS011;3212;51.460;11.868;2023-05-10T17:23:29;5.67;;;5.10;;
6358;SDS011;3212;51.460;11.868;2023-05-10T17:26:52;6.57;;;5.83;;
6358;SDS011;3212;51.460;11.868;2023-05-10T17:30:14;8.60;;;6.17;;
6358;SDS011;3212;51.460;11.868;2023-05-10T17:33:36;9.10;;;6.47;;
6358;SDS011;3212;51.460;11.868;2023-05-10T17:36:57;8.50;;;5.47;;
6358;SDS011;3212;51.460;11.868;2023-05-10T17:40:19;7.00;;;4.77;;
6358;SDS011;3212;51.460;11.868;2023-05-10T17:43:41;6.20;;;5.20;;
6358;SDS011;3212;51.460;11.868;2023-05-10T17:47:03;5.97;;;4.93;;
6358;SDS011;3212;51.460;11.868;2023-05-10T17:50:25;6.90;;;4.93;;
6358;SDS011;3212;51.460;11.868;2023-05-10T17:53:48;7.23;;;5.73;;
6358;SDS011;3212;51.460;11.868;2023-05-10T17:57:11;4.30;;;3.90;;
6358;SDS011;3212;51.460;11.868;2023-05-10T18:00:33;3.83;;;3.43;;
6358;SDS011;3212;51.460;11.868;2023-05-10T18:03:56;4.27;;;3.17;;
6358;SDS011;3212;51.460;11.868;2023-05-10T18:07:18;5.23;;;3.03;;
6358;SDS011;3212;51.460;11.868;2023-05-10T18:10:40;4.67;;;2.93;;
6358;SDS011;3212;51.460;11.868;2023-05-10T18:14:02;3.97;;;3.50;;
6358;SDS011;3212;51.460;11.868;2023-05-10T18:17:24;3.37;;;3.07;;
6358;SDS011;3212;51.460;11.868;2023-05-10T18:20:46;3.90;;;3.23;;
6358;SDS011;3212;51.460;11.868;2023-05-10T18:24:08;3.47;;;3.17;;
6358;SDS011;3212;51.460;11.868;2023-05-10T18:27:30;5.63;;;3.87;;
6358;SDS011;3212;51.460;11.868;2023-05-10T18:30:52;4.33;;;3.80;;
6358;SDS011;3212;51.460;11.868;2023-05-10T18:34:14;4.35;;;3.95;;
6358;SDS011;3212;51.460;11.868;2023-05-10T18:37:36;4.20;;;3.60;;
6358;SDS011;3212;51.460;11.868;2023-05-10T18:40:57;4.27;;;3.87;;
6358;SDS011;3212;51.460;11.868;2023-05-10T18:44:19;7.57;;;5.10;;
6358;SDS011;3212;51.460;11.868;2023-05-10T18:47:41;5.67;;;5.00;;
6358;SDS011;3212;51.460;11.868;2023-05-10T18:51:04;5.80;;;5.07;;
6358;SDS011;3212;51.460;11.868;2023-05-10T18:54:26;5.90;;;4.30;;
6358;SDS011;3212;51.460;11.868;2023-05-10T18:57:48;5.40;;;4.20;;
6358;SDS011;3212;51.460;11.868;2023-05-10T19:01:10;4.87;;;4.00;;
6358;SDS011;3212;51.460;11.868;2023-05-10T19:04:32;5.80;;;4.50;;
6358;SDS011;3212;51.460;11.868;2023-05-10T19:07:55;7.27;;;4.40;;
6358;SDS011;3212;51.460;11.868;2023-05-10T19:11:17;6.20;;;4.40;;
6358;SDS011;3212;51.460;11.868;2023-05-10T19:14:38;5.10;;;3.87;;
6358;SDS011;3212;51.460;11.868;2023-05-10T19:18:01;5.78;;;4.55;;
6358;SDS011;3212;51.460;11.868;2023-05-10T19:21:22;4.93;;;4.03;;
6358;SDS011;3212;51.460;11.868;2023-05-10T19:24:44;9.30;;;4.80;;
6358;SDS011;3212;51.460;11.868;2023-05-10T19:28:06;4.73;;;3.70;;
6358;SDS011;3212;51.460;11.868;2023-05-10T19:31:28;5.47;;;4.17;;
6358;SDS011;3212;51.460;11.868;2023-05-10T19:34:49;5.37;;;4.60;;
6358;SDS011;3212;51.460;11.868;2023-05-10T19:38:11;5.50;;;4.80;;
6358;SDS011;3212;51.460;11.868;2023-05-10T19:41:33;6.17;;;4.60;;
6358;SDS011;3212;51.460;11.868;2023-05-10T19:44:55;5.77;;;4.40;;
6358;SDS011;3212;51.460;11.868;2023-05-10T19:48:17;6.20;;;5.07;;
6358;SDS011;3212;51.460;11.868;2023-05-10T19:51:39;6.95;;;5.05;;
6358;SDS011;3212;51.460;11.868;2023-05-10T19:55:01;6.60;;;4.87;;
6358;SDS011;3212;51.460;11.868;2023-05-10T19:58:23;6.40;;;4.93;;
6358;SDS011;3212;51.460;11.868;2023-05-10T20:01:46;5.40;;;4.50;;
6358;SDS011;3212;51.460;11.868;2023-05-10T20:05:08;11.00;;;5.13;;
6358;SDS011;3212;51.460;11.868;2023-05-10T21:17:51;7.03;;;5.62;;
6358;SDS011;3212;51.460;11.868;2023-05-10T21:21:13;9.17;;;6.47;;
6358;SDS011;3212;51.460;11.868;2023-05-10T21:24:36;7.50;;;5.83;;
6358;SDS011;3212;51.460;11.868;2023-05-10T21:27:58;14.63;;;5.43;;
6358;SDS011;3212;51.460;11.868;2023-05-10T21:31:20;8.00;;;5.37;;
6358;SDS011;3212;51.460;11.868;2023-05-10T21:34:42;5.67;;;4.80;;
6358;SDS011;3212;51.460;11.868;2023-05-10T21:38:03;7.90;;;5.30;;
6358;SDS011;3212;51.460;11.868;2023-05-10T21:41:26;9.37;;;6.30;;
6358;SDS011;3212;51.460;11.868;2023-05-10T21:44:48;9.63;;;5.40;;
6358;SDS011;3212;51.460;11.868;2023-05-10T21:48:10;6.23;;;5.07;;
6358;SDS011;3212;51.460;11.868;2023-05-10T21:51:32;6.40;;;5.07;;
6358;SDS011;3212;51.460;11.868;2023-05-10T21:54:54;7.00;;;5.60;;